• Join FlightAware (Why Join?)
  • Login
  • US Flag 
08:16AM EDT


 

Airport Tracker/Info


-or-


 

Live Flight TrackerFlight Track Log ✈ AAY855 ✈ 03-Mar-2014 ✈ KSBN - KPIE

Flight Track Log - Related Links

Times and Time Zones

All times are in EST time to prevent confusion due to time zone crossing. See the AAY855 flight status page for this flight to view local times or setup timezone preferences in your user account.

Time Position Orientation Groundspeed Altitude Reporting Facility
EST Latitude Longitude Course Direction KTS MPH feet Rate Location/Type
06:29PM 41.6953 -86.3642 183° South 170 196 2,700  Level Chicago Center
06:30PM 41.6392 -86.3678 183° South 224 258 5,200 2,760 Climbing Chicago Center
06:31PM 41.5700 -86.3281 157° South 269 310 8,500 2,340 Climbing Chicago Center
06:32PM 41.4917 -86.2958 163° South 297 342 10,100 1,260 Climbing Chicago Center
06:33PM 41.3994 -86.2753 171° South 334 384 11,100 1,920 Climbing Chicago Center
06:34PM 41.2692 -86.2486 171° South 393 452 14,100 2,160 Climbing Chicago Center
06:35PM 41.1578 -86.2247 171° South 405 466 15,600 1,740 Climbing Chicago Center
06:36PM 41.0408 -86.1972 170° South 424 488 17,700 1,860 Climbing Chicago Center
06:37PM 40.9208 -86.1706 170° South 436 502 19,500 2,220 Climbing Chicago Center
06:38PM 40.8000 -86.1428 170° South 442 509 22,400 2,460 Climbing Chicago Center
06:39PM 40.6747 -86.1161 171° South 423 487 24,600 1,380 Climbing Chicago Center
06:40PM 40.5553 -86.0914 171° South 434 499 25,300 840 Climbing Chicago Center
06:41PM 40.4281 -86.0647 171° South 459 528 26,400 1,440 Climbing Chicago Center
06:42PM 40.2725 -86.0294 170° South 468 539 28,300 1,500 Climbing Chicago Center
06:43PM 40.1439 -86.0017 171° South 467 537 29,600 1,260 Climbing Chicago Center
06:44PM 40.0406 -85.9789 170° South 467 537 30,700 1,080 Climbing Indianapolis Center
06:45PM 39.9128 -85.9519 171° South 466 536 31,600 780 Climbing Indianapolis Center
06:46PM 39.7844 -85.9256 171° South 465 535 32,400 660 Climbing Indianapolis Center
06:47PM 39.6556 -85.8981 171° South 465 535 33,000 240 Climbing Indianapolis Center
06:48PM 39.5281 -85.8708 171° South 464 534 33,000  Level Indianapolis Center
06:49PM 39.3986 -85.8439 171° South 464 534 33,000  Level Indianapolis Center
06:50PM 39.2703 -85.8189 171° South 465 535 33,000  Level Indianapolis Center
06:51PM 39.1433 -85.7911 170° South 464 534 33,000  Level Indianapolis Center
06:52PM 38.9908 -85.7578 170° South 464 534 33,000  Level Indianapolis Center
06:53PM 38.8642 -85.7319 171° South 464 534 33,000  Level Indianapolis Center
06:55PM 38.7372 -85.7083 172° South 464 534 33,000  Level Indianapolis Center
06:56PM 38.6011 -85.6803 171° South 464 534 33,000  Level Indianapolis Center
06:57PM 38.4761 -85.6522 170° South 458 527 33,000  Level Indianapolis Center
06:58PM 38.3489 -85.6258 171° South 458 527 33,000  Level Indianapolis Center
06:59PM 38.2217 -85.6000 171° South 458 527 33,000  Level Indianapolis Center
07:00PM 38.0967 -85.5767 172° South 456 525 33,000  Level Indianapolis Center
07:01PM 37.9703 -85.5431 168° South 456 525 33,000  Level Indianapolis Center
07:02PM 37.8272 -85.5019 167° South 457 526 33,000  Level Indianapolis Center
07:03PM 37.6997 -85.4678 168° South 463 533 33,000  Level Indianapolis Center
07:04PM 37.5731 -85.4331 168° South 463 533 33,000  Level Indianapolis Center
07:05PM 37.4481 -85.4011 169° South 462 532 33,000  Level Indianapolis Center
07:06PM 37.3181 -85.3692 169° South 468 539 33,000  Level Indianapolis Center
07:07PM 37.1914 -85.3325 167° South 468 539 33,000  Level Indianapolis Center
07:08PM 37.0653 -85.2972 167° South 468 539 33,000  Level Indianapolis Center
07:09PM 36.9258 -85.2628 169° South 473 544 33,000  Level Indianapolis Center
07:10PM 36.7961 -85.2294 168° South 473 544 33,000  Level Indianapolis Center
07:11PM 36.6653 -85.1981 169° South 474 545 33,000  Level Indianapolis Center
07:12PM 36.5106 -85.1558 168° South 474 545 33,000  Level Indianapolis Center
07:13PM 36.3836 -85.1219 168° South 473 544 33,000  Level Indianapolis Center
07:14PM 36.2561 -85.0886 168° South 471 542 33,000  Level Indianapolis Center
07:15PM 36.1294 -85.0561 168° South 469 540 33,000  Level Indianapolis Center
07:16PM 36.0031 -85.0256 169° South 467 537 33,000  Level Indianapolis Center
07:17PM 35.8725 -84.9906 168° South 467 537 33,000  Level Indianapolis Center
07:18PM 35.8022 -84.9733 169° South 467 537 33,000  Level Atlanta Center
07:19PM 35.6733 -84.9411 169° South 472 543 33,000  Level Atlanta Center
07:20PM 35.5461 -84.9092 168° South 467 537 33,000  Level Atlanta Center
07:21PM 35.4172 -84.8772 169° South 467 537 33,000  Level Atlanta Center
07:22PM 35.2922 -84.8453 168° South 467 537 33,000  Level Atlanta Center
07:23PM 35.1631 -84.8136 169° South 467 537 33,000  Level Atlanta Center
07:24PM 35.0358 -84.7819 168° South 467 537 33,000  Level Atlanta Center
07:25PM 34.9086 -84.7531 169° South 467 537 33,000  Level Atlanta Center
07:26PM 34.7836 -84.7192 167° South 467 537 33,000  Level Atlanta Center
07:27PM 34.6586 -84.6878 168° South 467 537 33,000  Level Atlanta Center
07:28PM 34.5358 -84.6514 166° South 458 527 33,000  Level Atlanta Center
07:29PM 34.4128 -84.6256 170° South 458 527 33,000  Level Atlanta Center
07:30PM 34.2856 -84.5944 169° South 463 533 33,000  Level Atlanta Center
07:31PM 34.1583 -84.5636 169° South 469 540 33,000  Level Atlanta Center
07:32PM 34.0311 -84.5325 169° South 469 540 33,000  Level Atlanta Center
07:33PM 33.9039 -84.5019 169° South 469 540 33,000  Level Atlanta Center
07:34PM 33.7789 -84.4836 173° South 463 533 33,000  Level Atlanta Center
07:35PM 33.6517 -84.4806 179° South 463 533 33,000  Level Atlanta Center
07:36PM 33.5242 -84.4822 181° South 455 524 33,000  Level Atlanta Center
07:37PM 33.4031 -84.4767 178° South 444 511 33,000  Level Atlanta Center
07:38PM 33.2758 -84.4661 176° South 449 517 33,000  Level Atlanta Center
07:39PM 33.1528 -84.4631 179° South 449 517 33,000  Level Atlanta Center
07:40PM 33.0211 -84.4650 181° South 438 504 33,000  Level Atlanta Center
07:41PM 32.9003 -84.4594 178° South 438 504 33,000  Level Atlanta Center
07:42PM 32.7811 -84.4514 177° South 433 498 33,000  Level Atlanta Center
07:43PM 32.6603 -84.4458 178° South 438 504 33,000  Level Atlanta Center
07:44PM 32.5411 -84.4406 178° South 438 504 33,000  Level Atlanta Center
07:45PM 32.4203 -84.4375 179° South 438 504 33,000  Level Atlanta Center
07:46PM 32.3033 -84.4344 179° South 433 498 33,000  Level Atlanta Center
07:48PM 32.0947 -84.4253 178° South 437 503 33,000  Level Jacksonville Center
07:49PM 31.9797 -84.4208 178° South 437 503 33,000  Level Jacksonville Center
07:50PM 31.8608 -84.4164 178° South 432 497 33,000  Level Jacksonville Center
07:51PM 31.7461 -84.4169 180° South 422 486 33,000  Level Jacksonville Center
07:52PM 31.6292 -84.4103 177° South 417 480 33,000  Level Jacksonville Center
07:53PM 31.5144 -84.4058 178° South 422 486 33,000  Level Jacksonville Center
07:54PM 31.3975 -84.4042 179° South 422 486 33,000  Level Jacksonville Center
07:55PM 31.2886 -84.4289 191° South 417 480 33,000  Level Jacksonville Center
07:56PM 31.1797 -84.4636 195° South 411 473 33,000  Level Jacksonville Center
07:57PM 31.0728 -84.5008 197° South 405 466 33,000  Level Jacksonville Center
07:58PM 30.9617 -84.5328 194° South 405 466 33,000  Level Jacksonville Center
07:59PM 30.8431 -84.5042 168° South 405 466 33,000  Level Jacksonville Center
08:00PM 30.7289 -84.4514 158° South 413 475 33,000  Level Jacksonville Center
08:01PM 30.6147 -84.3939 157° South 427 491 33,000  Level Jacksonville Center
08:02PM 30.4986 -84.3342 156° South 441 507 33,000  Level Jacksonville Center
08:03PM 30.3844 -84.2653 152° Southeast 452 520 33,000  Level Jacksonville Center
08:04PM 30.2767 -84.1914 149° Southeast 457 526 33,000 -420 Level Jacksonville Center
08:05PM 30.1583 -84.1131 150° Southeast 451 519 32,200 -1,020 Descending Jacksonville Center
08:06PM 30.0442 -84.0419 152° Southeast 457 526 31,000 -1,080 Descending Jacksonville Center
08:07PM 29.9364 -83.9711 150° Southeast 457 526 30,100 -960 Descending Jacksonville Center
08:08PM 29.8367 -83.9053 150° Southeast 457 526 29,100 -960 Descending Jacksonville Center
08:09PM 29.7264 -83.8350 151° Southeast 457 526 28,200 -900 Descending Jacksonville Center
08:10PM 29.6164 -83.7644 151° Southeast 457 526 27,300 -600 Descending Jacksonville Center
08:11PM 29.5083 -83.6944 151° Southeast 457 526 27,000 -180 Descending Jacksonville Center
08:12PM 29.4000 -83.6244 151° Southeast 457 526 27,000 -480 Level Jacksonville Center
08:13PM 29.2919 -83.5569 151° Southeast 452 520 26,100 -900 Descending Jacksonville Center
08:14PM 29.1878 -83.4872 150° Southeast 447 514 25,300 -900 Descending Jacksonville Center
08:15PM 29.0817 -83.4225 152° Southeast 435 501 24,300 -660 Descending Jacksonville Center
08:16PM 28.9817 -83.3578 150° Southeast 429 494 24,000 -180 Descending Jacksonville Center
08:17PM 28.8797 -83.2956 152° Southeast 429 494 24,000 -840 Level Jacksonville Center
08:18PM 28.7778 -83.2267 149° Southeast 422 486 22,400 -2,520 Descending Jacksonville Center
08:19PM 28.6733 -83.1669 153° Southeast 422 486 19,000 -3,540 Descending Jacksonville Center
08:19PM 28.6000 -83.1167 149° Southeast 409 471 16,500 -2,340 Descending Tampa TRACON
08:21PM 28.4500 -83.0167 150° Southeast 384 442 13,900 -1,500 Descending Tampa TRACON
08:22PM 28.3667 -82.9667 152° Southeast 318 366 12,800 -1,320 Descending Tampa TRACON
08:23PM 28.3000 -82.9333 156° South 316 364 11,400 -1,620 Descending Tampa TRACON
08:24PM 28.2333 -82.8833 147° Southeast 313 360 9,800 -1,560 Descending Tampa TRACON
08:25PM 28.1667 -82.8000 132° Southeast 306 352 8,300 -1,500 Descending Tampa TRACON
08:26PM 28.1167 -82.7500 139° Southeast 258 297 6,900 -1,500 Descending Tampa TRACON
08:27PM 28.0667 -82.7500 180° South 179 206 5,000 -1,320 Descending Tampa TRACON
08:28PM 28.0833 -82.7833 300° West 166 191 4,200 -1,080 Descending Tampa TRACON
08:29PM 28.1167 -82.7500 41° Northeast 196 226 3,000 -1,140 Descending Tampa TRACON
08:30PM 28.0833 -82.7167 139° Southeast 180 207 2,100 -780 Descending Tampa TRACON
08:31PM 28.0333 -82.7167 180° South 170 196 1,600 -360 Descending Tampa TRACON
08:32PM 28.0000 -82.7000 156° South 152 175 1,400 -480 Descending Tampa TRACON
08:33PM 27.9500 -82.7000 180° South 128 147 700 -720 Descending Tampa TRACON